Time;durP1;ratioP1;P1;durP2;ratioP2;P2;SDS_P1;SDS_P2;PMS_P1;PMS_P2;Temp;Humidity;BMP_temperature;BMP_pressure;BME280_temperature;BME280_humidity;BME280_pressure;Samples;Min_cycle;Max_cycle;Signal;HPM_P1;HPM_P2
2020/12/17 00:01:22;;;;;;;52.58;25.30;;;;;;;5.79;86.09;101711.45;1680253;83;21208;-87
2020/12/17 00:03:48;;;;;;;43.65;23.98;;;;;;;5.79;86.09;101705.45;1676068;85;21620;-88
2020/12/17 00:06:15;;;;;;;40.95;22.13;;;;;;;5.79;86.12;101702.89;1671823;85;21261;-87
2020/12/17 00:08:41;;;;;;;46.42;23.92;;;;;;;5.77;86.10;101701.57;1678418;84;21232;-88
2020/12/17 00:11:08;;;;;;;42.67;23.38;;;;;;;5.78;86.10;101700.73;1679795;85;21200;-88
2020/12/17 00:13:34;;;;;;;47.93;23.47;;;;;;;5.79;86.13;101697.75;1679718;85;21668;-88
2020/12/17 00:16:00;;;;;;;51.37;23.30;;;;;;;5.80;86.13;101695.22;1679792;85;21243;-88
2020/12/17 00:18:27;;;;;;;46.13;22.67;;;;;;;5.81;86.12;101704.65;1679766;85;21241;-87
2020/12/17 00:20:53;;;;;;;45.60;23.10;;;;;;;5.81;86.12;101696.09;1679906;85;21104;-87
2020/12/17 00:23:19;;;;;;;43.33;21.85;;;;;;;5.81;86.13;101698.23;1691611;83;397304;-87
2020/12/17 00:25:45;;;;;;;46.20;21.85;;;;;;;5.81;86.12;101690.53;1708353;83;22437;-87
2020/12/17 00:28:11;;;;;;;46.00;21.75;;;;;;;5.81;86.11;101689.25;1708456;83;21224;-87
2020/12/17 00:30:38;;;;;;;44.33;21.73;;;;;;;5.80;86.09;101684.95;1707921;83;21185;-87
2020/12/17 00:33:04;;;;;;;43.55;21.40;;;;;;;5.79;86.09;101681.94;1704143;83;21205;-88
2020/12/17 00:35:30;;;;;;;42.55;22.07;;;;;;;5.79;86.13;101684.50;1708457;83;21197;-88
2020/12/17 00:37:57;;;;;;;48.17;20.88;;;;;;;5.80;86.14;101682.80;1708059;83;21585;-88
2020/12/17 00:40:23;;;;;;;42.03;21.50;;;;;;;5.80;86.13;101691.37;1708593;83;21157;-88
2020/12/17 00:42:49;;;;;;;45.58;21.07;;;;;;;5.81;86.14;101696.09;1708307;83;21145;-88
2020/12/17 00:45:16;;;;;;;40.50;20.80;;;;;;;5.82;86.15;101687.13;1708396;83;21201;-88
2020/12/17 00:47:43;;;;;;;50.15;21.70;;;;;;;5.82;86.17;101689.70;1711765;83;21164;-88
2020/12/17 00:50:11;;;;;;;39.90;19.35;;;;;;;5.84;86.17;101697.44;1723455;83;21173;-88
2020/12/17 00:52:39;;;;;;;38.75;19.77;;;;;;;5.84;86.14;101689.31;1719764;83;21178;-87
2020/12/17 00:55:07;;;;;;;36.98;19.30;;;;;;;5.84;86.13;101690.59;1715493;83;21389;-88
2020/12/17 00:57:34;;;;;;;40.85;19.57;;;;;;;5.85;86.15;101691.05;1723005;83;21533;-88
2020/12/17 01:00:00;;;;;;;41.13;20.77;;;;;;;5.86;86.15;101688.93;1724630;81;21626;-87
2020/12/17 01:02:26;;;;;;;36.63;20.02;;;;;;;5.86;86.12;101690.21;1723245;83;21172;-87
2020/12/17 01:04:53;;;;;;;40.48;19.45;;;;;;;5.85;86.11;101684.63;1723656;83;21169;-87
2020/12/17 01:07:19;;;;;;;44.48;20.25;;;;;;;5.86;86.13;101682.93;1723486;83;21365;-88
2020/12/17 01:09:46;;;;;;;39.65;20.02;;;;;;;5.85;86.15;101680.78;1723709;83;21156;-88
2020/12/17 01:12:12;;;;;;;40.78;20.20;;;;;;;5.85;86.14;101683.34;1723698;83;22311;-88
2020/12/17 01:14:38;;;;;;;41.58;21.00;;;;;;;5.85;86.14;101682.06;1723824;83;21551;-88
2020/12/17 01:17:07;;;;;;;39.18;20.43;;;;;;;5.84;86.15;101684.18;1723440;83;21141;-88
2020/12/17 01:19:34;;;;;;;46.75;20.48;;;;;;;5.84;86.14;101684.18;1723345;83;22301;-88
2020/12/17 01:22:00;;;;;;;;;;;;;;;5.85;86.15;101679.91;1724564;83;21185;-88
2020/12/17 01:24:27;;;;;;;35.98;19.48;;;;;;;5.85;86.18;101676.93;1723713;82;20314;-88
2020/12/17 01:26:54;;;;;;;30.80;16.40;;;;;;;5.85;86.16;101672.22;1723404;83;21248;-88
2020/12/17 01:29:22;;;;;;;30.65;15.50;;;;;;;5.85;86.15;101669.23;1723574;83;21201;-88
2020/12/17 01:31:49;;;;;;;32.55;17.70;;;;;;;5.85;86.14;101672.22;1723337;83;21601;-88
2020/12/17 01:34:15;;;;;;;31.93;17.10;;;;;;;5.85;86.15;101673.08;1719454;83;27032;-88
2020/12/17 01:36:42;;;;;;;35.88;16.25;;;;;;;5.85;86.15;101666.66;1723288;83;21192;-88
2020/12/17 01:39:08;;;;;;;32.15;16.82;;;;;;;5.86;86.19;101668.39;1723712;83;21625;-88
2020/12/17 01:41:34;;;;;;;32.98;16.82;;;;;;;5.87;86.17;101673.98;1723753;83;21204;-88
2020/12/17 01:44:03;;;;;;;32.10;16.05;;;;;;;5.89;86.17;101671.06;1723679;83;21332;-88
2020/12/17 01:46:30;;;;;;;25.27;15.00;;;;;;;5.89;86.14;101668.49;1699398;83;21618;-88
2020/12/17 01:48:58;;;;;;;28.45;14.58;;;;;;;5.91;86.13;101665.95;1721863;82;26732;-88
2020/12/17 01:51:24;;;;;;;31.45;17.25;;;;;;;5.93;86.16;101670.70;1720697;82;21188;-88
2020/12/17 01:53:54;;;;;;;30.65;16.90;;;;;;;5.94;86.16;101667.30;1689515;84;21693;-87
2020/12/17 01:56:24;;;;;;;28.98;16.55;;;;;;;5.96;86.16;101663.92;1704655;83;21188;-88
2020/12/17 01:59:14;;;;;;;30.23;17.12;;;;;;;6.01;86.16;101661.87;1708127;84;21181;-88
2020/12/17 02:01:49;;;;;;;27.75;16.32;;;;;;;6.03;86.14;101657.21;1706469;83;21169;-88
2020/12/17 02:04:22;;;;;;;34.83;18.12;;;;;;;6.04;86.16;101659.36;1708307;84;21142;-88
2020/12/17 02:06:49;;;;;;;33.20;18.10;;;;;;;6.06;86.12;101660.26;1707805;83;21527;-88
2020/12/17 02:09:16;;;;;;;32.58;17.73;;;;;;;6.10;86.14;101665.90;1694292;82;21674;-87
2020/12/17 02:11:57;;;;;;;27.32;17.32;;;;;;;6.11;86.14;101663.36;1699563;83;21196;-88
2020/12/17 02:14:25;;;;;;;32.78;18.45;;;;;;;6.15;86.16;101669.42;1705561;84;21165;-88
2020/12/17 02:16:52;;;;;;;29.95;16.95;;;;;;;6.19;86.17;101672.49;1588456;84;10000895;-88
2020/12/17 02:19:18;;;;;;;31.40;18.95;;;;;;;6.21;86.16;101670.82;1707125;84;21220;-88
2020/12/17 02:21:45;;;;;;;34.35;17.37;;;;;;;6.22;86.17;101672.55;1666444;84;21189;-88
2020/12/17 02:24:12;;;;;;;32.75;18.32;;;;;;;6.24;86.14;101679.84;1708163;83;21533;-88
2020/12/17 02:26:38;;;;;;;33.02;19.48;;;;;;;6.25;86.18;101673.86;1708094;84;21161;-88
2020/12/17 02:29:05;;;;;;;33.63;19.62;;;;;;;6.25;86.19;101670.87;1708081;83;21146;-88
2020/12/17 02:31:31;;;;;;;33.30;19.52;;;;;;;6.28;86.18;101672.64;1681178;83;21524;-88
2020/12/17 02:33:57;;;;;;;28.17;17.17;;;;;;;6.27;86.19;101678.19;1708060;83;21212;-88
2020/12/17 02:36:24;;;;;;;33.40;18.23;;;;;;;6.29;86.18;101670.52;1708282;83;21594;-88
2020/12/17 02:38:50;;;;;;;31.50;18.15;;;;;;;6.30;86.17;101670.95;1708383;83;21216;-88
2020/12/17 02:41:16;;;;;;;31.82;18.35;;;;;;;6.31;86.18;101671.41;1708413;83;21153;-87
2020/12/17 02:43:42;;;;;;;32.33;17.60;;;;;;;6.31;86.19;101667.55;1707477;83;21584;-88
2020/12/17 02:46:09;;;;;;;27.73;16.77;;;;;;;6.31;86.21;101667.14;1708154;83;21226;-88
2020/12/17 02:48:35;;;;;;;31.80;17.05;;;;;;;6.32;86.21;101671.85;1708646;83;21465;-88
2020/12/17 02:51:02;;;;;;;34.75;18.40;;;;;;;6.35;86.25;101674.90;1708194;83;21169;-88
2020/12/17 02:53:28;;;;;;;34.38;18.32;;;;;;;6.35;86.20;101674.48;1708393;83;21197;-88
2020/12/17 02:55:54;;;;;;;35.35;19.82;;;;;;;6.34;86.21;101666.33;1707915;83;21222;-87
2020/12/17 02:58:21;;;;;;;38.92;18.82;;;;;;;6.36;86.23;101671.48;1708359;83;21169;-88
2020/12/17 03:00:47;;;;;;;37.03;18.32;;;;;;;6.36;86.23;101672.36;1680663;83;21582;-88
2020/12/17 03:03:13;;;;;;;42.17;19.98;;;;;;;6.36;86.22;101672.36;1708258;83;21193;-88
2020/12/17 03:05:40;;;;;;;40.52;20.17;;;;;;;6.36;86.22;101668.50;1708465;83;21189;-88
2020/12/17 03:08:06;;;;;;;43.42;21.05;;;;;;;6.37;86.24;101671.52;1707854;83;27735;-88
2020/12/17 03:10:33;;;;;;;45.78;21.70;;;;;;;6.36;86.25;101673.64;1708484;83;21254;-88
2020/12/17 03:12:59;;;;;;;43.55;21.50;;;;;;;6.36;86.22;101671.48;1708590;83;21618;-88
2020/12/17 03:15:25;;;;;;;46.65;21.70;;;;;;;6.34;86.25;101674.03;1708606;83;21173;-88
2020/12/17 03:17:51;;;;;;;50.05;23.73;;;;;;;6.35;86.27;101672.33;1708409;83;21450;-88
2020/12/17 03:20:18;;;;;;;49.00;24.30;;;;;;;6.35;86.29;101672.33;1715194;82;21615;-87
2020/12/17 03:22:44;;;;;;;51.18;22.98;;;;;;;6.35;86.31;101674.48;1737498;82;21256;-87
2020/12/17 03:25:11;;;;;;;47.15;22.27;;;;;;;6.35;86.25;101664.20;1712163;82;21150;-88
2020/12/17 03:27:37;;;;;;;;;;;;;;;6.31;86.26;101659.43;1710764;83;21745;-88
2020/12/17 03:30:06;;;;;;;62.93;25.40;;;;;;;6.31;86.27;101661.13;1708512;83;21046;-88
2020/12/17 03:32:33;;;;;;;59.88;24.40;;;;;;;6.29;86.28;101651.25;1708124;83;21615;-88
2020/12/17 03:34:59;;;;;;;56.55;25.37;;;;;;;6.28;86.32;101652.09;1708488;83;21185;-88
2020/12/17 03:37:25;;;;;;;54.55;26.20;;;;;;;6.28;86.31;101654.23;1708341;83;21173;-88
2020/12/17 03:39:52;;;;;;;47.67;23.15;;;;;;;6.29;86.32;101655.10;1708420;83;21156;-88
2020/12/17 03:42:19;;;;;;;57.30;26.00;;;;;;;6.29;86.34;101657.25;1708253;83;21523;-88
2020/12/17 03:44:45;;;;;;;59.53;26.93;;;;;;;6.29;86.32;101656.39;1442286;85;20011794;-88
2020/12/17 03:47:11;;;;;;;62.38;27.55;;;;;;;6.29;86.33;101652.53;1678571;85;21106;-88
2020/12/17 03:49:37;;;;;;;63.90;28.17;;;;;;;6.29;86.34;101655.97;1678500;85;22004;-88
2020/12/17 03:52:04;;;;;;;63.60;27.82;;;;;;;6.29;86.31;101656.39;1678191;85;21253;-88
2020/12/17 03:54:30;;;;;;;65.80;29.48;;;;;;;6.28;86.31;101660.66;1677482;85;21638;-88
2020/12/17 03:56:56;;;;;;;65.67;28.00;;;;;;;6.28;86.32;101658.09;1652892;85;21196;-88
2020/12/17 03:59:23;;;;;;;62.08;28.75;;;;;;;6.29;86.37;101662.80;1678416;85;21201;-88
2020/12/17 04:01:49;;;;;;;65.80;29.15;;;;;;;6.31;86.37;101658.56;1678387;85;21628;-88
2020/12/17 04:04:15;;;;;;;66.65;30.60;;;;;;;6.30;86.36;101653.84;1677281;85;21172;-88
2020/12/17 04:06:41;;;;;;;67.40;29.92;;;;;;;6.33;86.34;101647.03;1678319;85;21213;-88
2020/12/17 04:09:08;;;;;;;65.03;28.90;;;;;;;6.32;86.33;101652.59;1678038;85;22097;-88
2020/12/17 04:11:34;;;;;;;67.58;30.25;;;;;;;6.31;86.30;101653.42;1678523;85;21242;-88
2020/12/17 04:14:00;;;;;;;65.30;29.67;;;;;;;6.30;86.32;101651.28;1678272;85;21245;-88
2020/12/17 04:16:27;;;;;;;70.72;30.35;;;;;;;6.30;86.32;101658.98;1678417;85;21233;-88
2020/12/17 04:18:53;;;;;;;75.70;33.92;;;;;;;6.30;86.31;101663.25;1678341;85;21218;-88
2020/12/17 04:21:19;;;;;;;76.97;35.05;;;;;;;6.29;86.33;101658.53;1678351;85;21619;-88
2020/12/17 04:23:45;;;;;;;74.20;31.55;;;;;;;6.17;86.33;101642.06;1678370;85;21208;-88
2020/12/17 04:26:14;;;;;;;75.17;32.10;;;;;;;6.28;86.36;101667.08;1678528;85;21741;-88
2020/12/17 04:28:40;;;;;;;69.90;30.90;;;;;;;6.29;86.35;101659.82;1678367;85;21724;-88
2020/12/17 04:31:06;;;;;;;79.03;33.78;;;;;;;6.30;86.38;101662.84;1678360;85;21435;-88
2020/12/17 04:33:33;;;;;;;78.17;35.78;;;;;;;6.31;86.35;101659.43;1678214;85;21220;-88
2020/12/17 04:35:59;;;;;;;83.42;36.25;;;;;;;6.30;86.35;101666.69;1678562;85;26480;-88
2020/12/17 04:38:26;;;;;;;87.08;37.40;;;;;;;6.29;86.31;101663.67;1678152;85;21252;-88
2020/12/17 04:40:52;;;;;;;;;;;;;;;6.28;86.32;101661.08;1680970;85;21213;-88
2020/12/17 04:43:19;;;;;;;84.15;36.10;;;;;;;6.27;86.33;101661.50;1678566;85;20210;-88
2020/12/17 04:45:45;;;;;;;88.52;37.80;;;;;;;6.25;86.32;101658.45;1678252;85;21188;-88
2020/12/17 04:48:16;;;;;;;87.47;37.80;;;;;;;6.22;86.31;101655.44;1678195;85;21729;-88
2020/12/17 04:50:44;;;;;;;79.70;35.35;;;;;;;6.20;86.33;101658.40;1691563;84;21379;-88
2020/12/17 04:53:14;;;;;;;77.55;35.90;;;;;;;6.19;86.37;101664.37;1693208;84;21460;-88
2020/12/17 04:55:42;;;;;;;83.35;37.05;;;;;;;6.20;86.41;101660.97;1692730;84;21603;-88
2020/12/17 04:58:10;;;;;;;82.37;37.00;;;;;;;6.22;86.37;101663.56;1693202;84;21168;-88
2020/12/17 05:00:41;;;;;;;89.52;38.45;;;;;;;6.21;86.36;101660.55;1682152;84;21206;-88
2020/12/17 05:03:13;;;;;;;81.22;35.17;;;;;;;6.22;86.40;101655.86;1678442;84;21913;-88
2020/12/17 05:05:40;;;;;;;94.28;38.53;;;;;;;6.21;86.37;101654.99;1693092;84;21191;-88
2020/12/17 05:08:06;;;;;;;89.40;37.53;;;;;;;6.20;86.36;101651.11;1693303;84;21716;-88
2020/12/17 05:10:32;;;;;;;77.92;33.60;;;;;;;6.20;86.36;101648.13;1693184;84;21191;-88
2020/12/17 05:12:59;;;;;;;90.90;39.65;;;;;;;6.21;86.40;101648.58;1693261;84;21450;-88
2020/12/17 05:15:26;;;;;;;86.47;36.03;;;;;;;6.21;86.36;101647.70;1693010;84;21226;-88
2020/12/17 05:17:53;;;;;;;81.97;34.80;;;;;;;6.21;86.36;101648.99;1692973;84;21236;-88
2020/12/17 05:20:20;;;;;;;89.25;38.90;;;;;;;6.21;86.36;101642.16;1692887;84;21196;-88
2020/12/17 05:22:47;;;;;;;90.25;38.98;;;;;;;6.22;86.37;101641.73;1693159;84;21632;-88
2020/12/17 05:25:15;;;;;;;81.85;39.20;;;;;;;6.21;86.34;101648.58;1693135;84;21701;-88
2020/12/17 05:27:42;;;;;;;90.28;39.90;;;;;;;6.21;86.36;101642.57;1692937;83;21287;-88
2020/12/17 05:30:09;;;;;;;83.35;37.08;;;;;;;6.21;86.36;101647.70;1692712;84;21200;-88
2020/12/17 05:32:35;;;;;;;;;;;;;;;6.20;86.35;101644.27;1695430;84;21474;-88
2020/12/17 05:35:04;;;;;;;87.40;36.55;;;;;;;6.21;86.38;101646.42;1693229;84;20397;-88
2020/12/17 05:37:32;;;;;;;84.87;36.88;;;;;;;6.19;86.33;101641.26;1692923;84;21614;-88
2020/12/17 05:40:00;;;;;;;80.25;37.35;;;;;;;6.18;86.35;101639.53;1693084;84;21634;-88
2020/12/17 05:42:28;;;;;;;87.60;37.63;;;;;;;6.18;86.36;101643.37;1693118;84;21192;-88
2020/12/17 05:44:54;;;;;;;77.17;34.83;;;;;;;6.18;86.41;101637.37;1692954;84;21736;-88
2020/12/17 05:47:21;;;;;;;72.40;34.05;;;;;;;6.17;86.39;101632.66;1693460;84;21603;-88
2020/12/17 05:49:47;;;;;;;78.95;36.00;;;;;;;6.19;86.40;101631.41;1687984;84;21200;-88
2020/12/17 05:52:18;;;;;;;79.10;36.50;;;;;;;6.19;86.35;101633.97;1674215;85;21499;-88
2020/12/17 05:54:59;;;;;;;84.22;36.60;;;;;;;6.16;86.35;101636.06;1662513;85;21236;-88
2020/12/17 05:57:25;;;;;;;86.02;37.05;;;;;;;6.16;86.38;101639.92;1664392;85;21451;-88
2020/12/17 05:59:58;;;;;;;87.08;38.83;;;;;;;6.17;86.39;101640.78;1673436;85;21216;-88
2020/12/17 06:02:41;;;;;;;90.12;38.98;;;;;;;6.16;86.37;101636.06;1677828;85;21224;-88
2020/12/17 06:05:14;;;;;;;87.30;38.00;;;;;;;6.15;86.36;101639.47;1631936;86;21559;-89
2020/12/17 06:07:50;;;;;;;84.13;36.85;;;;;;;6.12;86.37;101635.56;1677975;85;21220;-89
2020/12/17 06:10:31;;;;;;;80.45;35.45;;;;;;;6.14;86.41;101630.45;1666503;85;28390;-89
2020/12/17 06:13:05;;;;;;;86.85;37.70;;;;;;;6.14;86.40;101642.88;1630453;85;21686;-89
2020/12/17 06:15:39;;;;;;;80.75;36.15;;;;;;;6.14;86.38;101633.02;1678461;85;21206;-89
2020/12/17 06:18:07;;;;;;;90.50;40.43;;;;;;;6.13;86.36;101634.73;1651543;85;21269;-89
2020/12/17 06:20:34;;;;;;;86.12;38.88;;;;;;;6.09;86.35;101634.22;1632114;85;21216;-90
2020/12/17 06:23:05;;;;;;;;;;;;;;;6.04;86.31;101628.14;1655180;85;21666;-89
2020/12/17 06:25:36;;;;;;;91.00;39.03;;;;;;;6.03;86.35;101629.39;1678315;84;20626;-89
2020/12/17 06:28:03;;;;;;;86.78;39.20;;;;;;;6.01;86.37;101631.06;1678436;85;21201;-90
2020/12/17 06:30:33;;;;;;;79.42;37.98;;;;;;;5.99;86.38;101628.47;1677024;85;21780;-89
2020/12/17 06:33:07;;;;;;;90.15;39.33;;;;;;;5.96;86.36;101622.86;1674845;85;21260;-88
2020/12/17 06:35:41;;;;;;;85.50;38.42;;;;;;;5.94;86.36;101618.11;1682121;84;21239;-89
2020/12/17 06:38:10;;;;;;;87.27;39.53;;;;;;;5.93;86.36;101615.09;1674722;84;21996;-89
2020/12/17 06:40:38;;;;;;;88.80;36.98;;;;;;;5.92;86.39;101615.93;1679675;84;21244;-90
2020/12/17 06:43:14;;;;;;;78.37;34.80;;;;;;;5.91;86.38;101623.60;1688326;84;22008;-90
2020/12/17 06:45:40;;;;;;;89.05;38.67;;;;;;;5.90;86.41;101622.73;1679314;84;21272;-89
2020/12/17 06:48:40;;;;;;;81.72;35.88;;;;;;;5.92;86.42;101621.06;1695930;84;22434;-89
2020/12/17 06:51:38;;;;;;;82.25;35.70;;;;;;;5.91;86.43;101619.34;1659617;84;21675;-89
2020/12/17 06:54:08;;;;;;;90.60;38.15;;;;;;;5.91;86.39;101615.48;1662474;85;21274;-89
2020/12/17 06:56:40;;;;;;;84.00;37.20;;;;;;;5.89;86.39;101618.44;1674978;84;22127;-88
2020/12/17 06:59:18;;;;;;;76.50;34.78;;;;;;;5.87;86.40;101610.23;1686287;83;21228;-88
2020/12/17 07:01:49;;;;;;;79.85;34.48;;;;;;;5.87;86.43;101617.92;1690628;84;21945;-90
2020/12/17 07:04:45;;;;;;;79.75;34.60;;;;;;;5.85;86.43;101619.59;1668737;84;21255;-89
2020/12/17 07:07:22;;;;;;;;;;;;;;;5.85;86.44;101615.75;1663671;83;21615;-90
2020/12/17 07:09:56;;;;;;;72.62;31.45;;;;;;;5.84;86.47;101625.56;1667783;84;21094;-89
2020/12/17 07:12:40;;;;;;;80.25;34.88;;;;;;;5.84;86.46;101623.87;1672694;84;21670;-90
2020/12/17 07:15:37;;;;;;;73.42;32.33;;;;;;;5.85;86.52;101624.73;1670647;84;21653;-89
2020/12/17 07:18:26;;;;;;;69.25;30.72;;;;;;;5.85;86.50;101624.31;1632893;86;21985;-89
2020/12/17 07:21:05;;;;;;;72.17;32.48;;;;;;;5.87;86.50;101625.20;1677001;84;21230;-90
2020/12/17 07:23:41;;;;;;;73.30;30.95;;;;;;;5.87;86.48;101622.64;1664231;84;21267;-89
2020/12/17 07:26:16;;;;;;;69.42;30.35;;;;;;;5.87;86.48;101622.64;1688673;83;21235;-88
2020/12/17 07:28:54;;;;;;;78.20;33.20;;;;;;;5.87;86.48;101630.77;1685036;83;21212;-89
2020/12/17 07:31:28;;;;;;;74.45;32.53;;;;;;;5.88;86.50;101626.94;1681985;83;21188;-89
2020/12/17 07:33:55;;;;;;;63.35;29.23;;;;;;;5.90;86.50;101629.57;1692416;84;21231;-89
2020/12/17 07:36:48;;;;;;;72.17;31.55;;;;;;;5.90;86.51;101626.59;1689716;84;21339;-89
2020/12/17 07:39:14;;;;;;;73.62;31.12;;;;;;;5.91;86.49;101628.73;1679513;84;21232;-87
2020/12/17 07:41:40;;;;;;;;;;;;;;;5.92;86.49;101624.91;1688408;83;21244;-89
2020/12/17 07:44:09;;;;;;;66.15;29.48;;;;;;;5.93;86.51;101626.64;1691835;84;20312;-88
2020/12/17 07:46:43;;;;;;;65.83;30.15;;;;;;;5.97;86.52;101629.72;1689654;83;21220;-88
2020/12/17 07:49:30;;;;;;;62.65;28.77;;;;;;;6.01;86.52;101631.06;1687367;83;21866;-88
2020/12/17 07:51:58;;;;;;;66.75;29.20;;;;;;;6.02;86.49;101625.95;1646089;84;21223;-89
2020/12/17 07:54:25;;;;;;;64.27;28.80;;;;;;;6.05;86.47;101633.72;1624866;86;21232;-89
2020/12/17 07:57:00;;;;;;;69.82;29.95;;;;;;;6.08;86.50;101632.91;1624853;86;21230;-89
2020/12/17 07:59:34;;;;;;;59.27;28.25;;;;;;;6.12;86.50;101629.56;1597468;85;21237;-89
2020/12/17 08:02:04;;;;;;;58.02;27.10;;;;;;;6.12;86.44;101635.98;1642967;86;22392;-89
2020/12/17 08:04:31;;;;;;;60.52;28.20;;;;;;;6.13;86.42;101641.56;1622636;86;21270;-89
2020/12/17 08:07:01;;;;;;;61.00;28.00;;;;;;;6.15;86.46;101633.47;1616436;86;21251;-90
2020/12/17 08:09:39;;;;;;;65.40;29.55;;;;;;;6.17;86.45;101642.06;1635870;86;21252;-90
2020/12/17 08:12:01;;;;;;;66.55;28.57;;;;;;;6.18;86.41;101647.66;1634730;86;21219;-89
2020/12/17 08:14:30;;;;;;;65.87;31.48;;;;;;;6.20;86.42;101645.98;1628382;85;21931;-90
2020/12/17 08:17:06;;;;;;;67.27;29.37;;;;;;;6.20;86.41;101640.42;1646456;85;21238;-88
2020/12/17 08:19:34;;;;;;;61.53;30.23;;;;;;;6.20;86.38;101638.27;1646048;85;21665;-88
2020/12/17 08:22:03;;;;;;;71.70;30.85;;;;;;;6.21;86.42;101640.87;1647564;85;21767;-88
2020/12/17 08:24:32;;;;;;;59.00;29.00;;;;;;;6.22;86.42;101642.60;1626209;86;21196;-88
2020/12/17 08:26:58;;;;;;;66.77;29.82;;;;;;;6.21;86.38;101637.44;1645018;86;22003;-88
2020/12/17 08:29:25;;;;;;;67.65;27.62;;;;;;;6.22;86.43;101639.16;1644285;86;21558;-88
2020/12/17 08:31:53;;;;;;;64.90;30.08;;;;;;;6.23;86.42;101643.05;1641569;86;21210;-87
2020/12/17 08:34:25;;;;;;;65.03;29.77;;;;;;;6.25;86.43;101643.91;1635670;86;21240;-88
2020/12/17 08:36:51;;;;;;;61.73;28.45;;;;;;;6.27;86.42;101643.52;1651445;85;21228;-88
2020/12/17 08:39:18;;;;;;;59.58;28.55;;;;;;;6.27;86.41;101643.52;1649721;86;21507;-88
2020/12/17 08:41:53;;;;;;;57.30;28.23;;;;;;;6.29;86.41;101647.40;1645724;85;21195;-89
2020/12/17 08:44:29;;;;;;;63.55;29.05;;;;;;;6.30;86.38;101648.70;1639825;85;21511;-88
2020/12/17 08:47:02;;;;;;;63.08;28.73;;;;;;;6.31;86.39;101645.72;1644462;86;21223;-89
2020/12/17 08:49:29;;;;;;;55.38;28.47;;;;;;;6.35;86.48;101653.06;1639257;85;21183;-88
2020/12/17 08:51:56;;;;;;;65.22;29.27;;;;;;;6.38;86.46;101647.56;1648551;84;21470;-88
2020/12/17 08:54:33;;;;;;;52.58;25.75;;;;;;;6.41;86.46;101650.60;1641219;85;21204;-88
2020/12/17 08:57:08;;;;;;;59.05;27.73;;;;;;;6.43;86.46;101644.66;1635881;85;21283;-87
2020/12/17 08:59:35;;;;;;;65.10;29.82;;;;;;;6.49;86.46;101654.17;1634990;86;21255;-86
2020/12/17 09:02:01;;;;;;;56.42;27.35;;;;;;;6.53;86.47;101639.26;1634887;85;21227;-88
2020/12/17 09:04:31;;;;;;;70.25;30.17;;;;;;;6.56;86.41;101644.03;1641048;85;22132;-88
2020/12/17 09:07:00;;;;;;;61.10;29.98;;;;;;;6.57;86.37;101645.77;1646880;86;21211;-88
2020/12/17 09:09:29;;;;;;;67.70;30.90;;;;;;;6.58;86.33;101637.63;1638948;86;21206;-88
2020/12/17 09:12:01;;;;;;;64.92;28.60;;;;;;;6.58;86.34;101638.50;1641584;86;21243;-88
2020/12/17 09:14:29;;;;;;;67.65;30.62;;;;;;;6.60;86.35;101641.09;1649900;86;21272;-87
2020/12/17 09:17:13;;;;;;;63.95;28.98;;;;;;;6.60;86.31;101634.25;1649845;86;21275;-88
2020/12/17 09:19:42;;;;;;;67.80;30.50;;;;;;;6.60;86.30;101632.96;1642523;86;21713;-87
2020/12/17 09:22:11;;;;;;;66.75;30.30;;;;;;;6.63;86.32;101636.00;1642233;85;21188;-88
2020/12/17 09:24:40;;;;;;;61.85;28.77;;;;;;;6.63;86.29;101634.72;1642227;85;21466;-87
2020/12/17 09:27:29;;;;;;;57.83;28.20;;;;;;;6.66;86.33;101639.05;1625654;86;21673;-87
2020/12/17 09:30:05;;;;;;;60.25;28.55;;;;;;;6.68;86.38;101632.22;1639811;85;21653;-86
2020/12/17 09:32:32;;;;;;;61.28;27.87;;;;;;;6.69;86.34;101630.09;1644636;85;21834;-86
2020/12/17 09:35:09;;;;;;;62.88;29.05;;;;;;;6.73;86.36;101639.17;1646292;85;21243;-86
2020/12/17 09:37:36;;;;;;;58.38;28.90;;;;;;;6.74;86.32;101640.90;1621508;85;21678;-88
2020/12/17 09:40:09;;;;;;;65.40;30.65;;;;;;;6.79;86.33;101639.23;1642007;86;21644;-88
2020/12/17 09:42:35;;;;;;;66.67;31.33;;;;;;;6.81;86.30;101644.41;1647818;86;22338;-88
2020/12/17 09:45:21;;;;;;;61.33;28.92;;;;;;;6.83;86.24;101641.02;1641369;85;21679;-88
2020/12/17 09:47:48;;;;;;;66.02;30.40;;;;;;;6.84;86.23;101642.75;1637895;85;21223;-88
2020/12/17 09:50:18;;;;;;;67.97;33.15;;;;;;;6.86;86.23;101650.06;1645150;86;21216;-88
2020/12/17 09:52:46;;;;;;;73.72;32.73;;;;;;;6.89;86.25;101647.95;1642402;85;21215;-89
2020/12/17 09:55:17;;;;;;;66.72;32.78;;;;;;;6.90;86.20;101641.98;1634841;85;21226;-89
2020/12/17 09:57:47;;;;;;;64.80;32.70;;;;;;;6.89;86.16;101644.11;1600003;86;21239;-89
2020/12/17 10:00:15;;;;;;;72.37;34.70;;;;;;;6.89;86.20;101646.25;1626728;85;21207;-89
2020/12/17 10:02:42;;;;;;;70.57;33.35;;;;;;;6.94;86.25;101641.18;1643474;86;21227;-89
2020/12/17 10:05:13;;;;;;;78.05;35.08;;;;;;;6.95;86.23;101638.64;1642915;85;21595;-88
2020/12/17 10:07:46;;;;;;;70.35;34.03;;;;;;;6.94;86.16;101621.48;1641664;85;21265;-88
2020/12/17 10:10:12;;;;;;;72.15;34.60;;;;;;;6.96;86.20;101621.08;1623342;86;21235;-88
2020/12/17 10:12:40;;;;;;;76.33;36.35;;;;;;;6.98;86.22;101619.40;1651952;85;22145;-88
2020/12/17 10:15:08;;;;;;;74.30;35.17;;;;;;;7.00;86.17;101615.56;1649623;86;21243;-88
2020/12/17 10:17:40;;;;;;;74.42;36.63;;;;;;;7.01;86.19;101610.86;1650042;85;21235;-89
2020/12/17 10:20:10;;;;;;;81.20;36.95;;;;;;;7.04;86.19;101604.48;1601516;88;21385;-89
2020/12/17 10:22:40;;;;;;;68.83;32.58;;;;;;;7.05;86.10;101607.92;1622286;86;21231;-89
2020/12/17 10:25:05;;;;;;;78.92;37.60;;;;;;;7.03;86.11;101602.75;1609496;86;21688;-89
2020/12/17 10:27:33;;;;;;;;;;;;;;;7.04;86.12;101593.33;1629786;86;21254;-89
2020/12/17 10:30:05;;;;;;;69.70;33.48;;;;;;;7.02;86.06;101592.02;1628949;86;20330;-89
2020/12/17 10:32:32;;;;;;;77.32;37.42;;;;;;;7.01;86.05;101594.15;1625431;86;21363;-88
2020/12/17 10:34:59;;;;;;;82.33;38.20;;;;;;;7.00;86.09;101591.13;1623990;86;21253;-88
2020/12/17 10:37:26;;;;;;;;;;;;;;;7.00;86.09;101591.13;1625986;86;21308;-89
2020/12/17 10:39:54;;;;;;;77.00;36.60;;;;;;;7.02;86.12;101593.73;1629216;86;21116;-88
2020/12/17 10:42:21;;;;;;;80.25;37.80;;;;;;;7.01;86.10;101593.28;1606872;88;21758;-88
2020/12/17 10:44:54;;;;;;;72.85;36.98;;;;;;;7.02;86.11;101589.45;1629540;86;21249;-89
2020/12/17 10:47:21;;;;;;;72.80;36.25;;;;;;;7.03;86.15;101591.18;1634203;86;21226;-87
2020/12/17 10:49:53;;;;;;;72.67;36.58;;;;;;;7.03;86.09;101591.18;1624430;86;21255;-88
2020/12/17 10:52:19;;;;;;;79.10;37.00;;;;;;;7.06;86.11;101590.36;1628064;84;21237;-88
2020/12/17 10:54:46;;;;;;;71.02;34.85;;;;;;;7.05;86.06;101589.49;1631584;86;22292;-88
2020/12/17 10:57:12;;;;;;;71.70;36.60;;;;;;;7.07;86.12;101586.95;1612580;86;23348;-88
2020/12/17 10:59:39;;;;;;;72.87;36.90;;;;;;;7.11;86.14;101587.43;1654909;85;21195;-87
2020/12/17 11:02:05;;;;;;;78.83;36.13;;;;;;;7.13;86.08;101584.45;1653946;86;21211;-88
2020/12/17 11:04:32;;;;;;;72.47;35.43;;;;;;;7.16;86.13;101594.37;1644273;85;21206;-87
2020/12/17 11:07:01;;;;;;;70.92;35.48;;;;;;;7.18;86.09;101586.67;1655356;86;21270;-88
2020/12/17 11:09:28;;;;;;;71.45;35.90;;;;;;;7.21;86.07;101588.00;1656842;86;21234;-87
2020/12/17 11:11:54;;;;;;;64.05;34.33;;;;;;;7.25;86.10;101585.91;1661100;85;21261;-87
2020/12/17 11:14:20;;;;;;;75.78;35.98;;;;;;;7.26;86.00;101585.06;1658929;85;21620;-88
2020/12/17 11:16:56;;;;;;;70.83;33.88;;;;;;;7.26;85.92;101579.92;1654945;86;21209;-88
2020/12/17 11:19:21;;;;;;;71.95;31.75;;;;;;;7.25;85.93;101583.34;1653100;86;21207;-87
2020/12/17 11:21:52;;;;;;;65.45;32.42;;;;;;;7.26;85.91;101583.78;1628595;86;21381;-88
2020/12/17 11:24:22;;;;;;;65.67;33.10;;;;;;;7.26;85.90;101576.92;1626224;86;21215;-88
2020/12/17 11:26:51;;;;;;;69.03;32.73;;;;;;;7.26;85.83;101567.06;1633581;85;21628;-88
2020/12/17 11:29:18;;;;;;;69.47;35.13;;;;;;;7.22;85.80;101562.72;1650866;86;21627;-88